Time;durP1;ratioP1;P1;durP2;ratioP2;P2;SDS_P1;SDS_P2;PMS_P1;PMS_P2;Temp;Humidity;BMP_temperature;BMP_pressure;BME280_temperature;BME280_humidity;BME280_pressure;Samples;Min_cycle;Max_cycle;Signal;HPM_P1;HPM_P2
2022/03/24 00:01:40;;;;;;;34.20;17.92;;;3.90;96.50;;;;;;5022120;28;20067;-67
2022/03/24 00:04:06;;;;;;;33.55;18.58;;;3.90;96.50;;;;;;5036186;28;20037;-67
2022/03/24 00:06:32;;;;;;;31.23;17.13;;;3.90;96.60;;;;;;5035342;28;20110;-68
2022/03/24 00:08:58;;;;;;;;;;;3.80;96.40;;;;;;5036033;28;20057;-68
2022/03/24 00:11:23;;;;;;;35.22;18.33;;;3.90;96.50;;;;;;5038584;28;20386;-67
2022/03/24 00:13:50;;;;;;;36.90;19.00;;;3.90;96.40;;;;;;5038395;28;20041;-67
2022/03/24 00:16:17;;;;;;;34.05;17.25;;;3.90;96.40;;;;;;5039341;28;20536;-67
2022/03/24 00:18:44;;;;;;;32.15;18.42;;;3.90;96.40;;;;;;5034956;28;20045;-68
2022/03/24 00:21:09;;;;;;;34.70;19.65;;;3.80;96.40;;;;;;5025166;28;20710;-68
2022/03/24 00:23:35;;;;;;;35.97;19.17;;;3.90;96.30;;;;;;5024605;28;20061;-68
2022/03/24 00:26:00;;;;;;;;;;;3.90;96.30;;;;;;5020529;28;20045;-68
2022/03/24 00:28:26;;;;;;;29.38;17.27;;;3.90;96.30;;;;;;5022652;28;19944;-67
2022/03/24 00:30:52;;;;;;;31.70;18.13;;;3.90;96.30;;;;;;5021187;28;20080;-68
2022/03/24 00:33:18;;;;;;;34.05;18.75;;;3.90;96.20;;;;;;5021274;28;20485;-68
2022/03/24 00:35:43;;;;;;;38.75;20.33;;;3.80;96.30;;;;;;5021958;28;20056;-70
2022/03/24 00:38:09;;;;;;;38.15;19.63;;;3.80;96.60;;;;;;5020672;28;20144;-68
2022/03/24 00:40:35;;;;;;;;;;;3.70;96.50;;;;;;5025302;28;20056;-67
2022/03/24 00:43:01;;;;;;;37.45;18.75;;;3.80;96.40;;;;;;5021847;28;19924;-67
2022/03/24 00:45:27;;;;;;;38.08;19.42;;;3.70;96.60;;;;;;5022823;28;20092;-66
2022/03/24 00:47:53;;;;;;;34.30;19.60;;;3.70;96.50;;;;;;5021357;28;20588;-66
2022/03/24 00:50:19;;;;;;;39.35;18.92;;;3.70;96.80;;;;;;5020976;28;20060;-67
2022/03/24 00:52:45;;;;;;;40.55;20.98;;;3.70;96.80;;;;;;5022806;28;20556;-67
2022/03/24 00:55:19;;;;;;;56.47;20.77;;;3.60;97.50;;;;;;5022430;28;20068;-66
2022/03/24 00:57:49;;;;;;;35.85;19.95;;;3.60;97.30;;;;;;5026354;28;20045;-67
2022/03/24 01:00:16;;;;;;;37.67;19.42;;;3.50;97.30;;;;;;5025559;28;20038;-67
2022/03/24 01:02:44;;;;;;;42.13;20.23;;;3.50;97.80;;;;;;5025245;28;20030;-67
2022/03/24 01:05:13;;;;;;;42.72;21.60;;;3.50;97.60;;;;;;5021001;28;20049;-67
2022/03/24 01:07:39;;;;;;;39.25;20.80;;;3.50;97.90;;;;;;5022735;28;20046;-67
2022/03/24 01:10:06;;;;;;;40.47;21.67;;;3.50;97.90;;;;;;5025168;28;20029;-67
2022/03/24 01:12:32;;;;;;;39.03;21.35;;;3.50;98.10;;;;;;5025572;28;20038;-67
2022/03/24 01:14:58;;;;;;;37.80;21.92;;;3.50;98.10;;;;;;5023298;28;20396;-67
2022/03/24 01:17:26;;;;;;;38.17;20.52;;;3.50;98.20;;;;;;5024718;28;20048;-66
2022/03/24 01:19:53;;;;;;;40.60;20.88;;;3.40;98.10;;;;;;5024305;28;20081;-67
2022/03/24 01:22:18;;;;;;;39.35;20.83;;;3.40;97.90;;;;;;5025880;28;20612;-67
2022/03/24 01:24:45;;;;;;;41.05;20.27;;;3.50;98.10;;;;;;5023314;28;20136;-67
2022/03/24 01:27:14;;;;;;;35.72;18.80;;;3.50;98.00;;;;;;5025617;28;20056;-67
2022/03/24 01:29:40;;;;;;;36.78;19.00;;;3.50;97.90;;;;;;5024328;28;20053;-67
2022/03/24 01:32:07;;;;;;;41.10;20.60;;;3.40;98.10;;;;;;5024467;28;20037;-66
2022/03/24 01:34:37;;;;;;;41.33;21.30;;;3.40;97.90;;;;;;5020927;28;20606;-67
2022/03/24 01:37:05;;;;;;;38.85;21.25;;;3.40;97.80;;;;;;5021054;28;20175;-67
2022/03/24 01:39:32;;;;;;;41.65;22.38;;;3.50;98.00;;;;;;5021514;28;20412;-67
2022/03/24 01:41:58;;;;;;;40.42;21.38;;;3.40;98.20;;;;;;5022786;28;20041;-67
2022/03/24 01:44:26;;;;;;;39.03;20.92;;;3.40;98.50;;;;;;5018516;28;20045;-67
2022/03/24 01:47:05;;;;;;;43.95;21.98;;;3.30;98.60;;;;;;5020085;28;20085;-65
2022/03/24 01:49:36;;;;;;;39.63;21.55;;;3.40;98.50;;;;;;5023857;28;20701;-66
2022/03/24 01:52:10;;;;;;;40.92;22.70;;;3.30;98.30;;;;;;5020641;28;20049;-65
2022/03/24 01:54:39;;;;;;;42.88;22.48;;;3.30;98.70;;;;;;5019949;28;20055;-65
2022/03/24 01:57:08;;;;;;;42.88;21.30;;;3.30;98.40;;;;;;5019863;28;20598;-65
2022/03/24 01:59:35;;;;;;;40.42;22.83;;;3.20;98.80;;;;;;5021657;28;20116;-66
2022/03/24 02:02:00;;;;;;;41.90;21.85;;;3.20;99.20;;;;;;5019095;28;20041;-65
2022/03/24 02:04:26;;;;;;;37.58;21.33;;;3.20;99.60;;;;;;5021767;28;20053;-65
2022/03/24 02:06:52;;;;;;;39.22;21.55;;;3.10;99.60;;;;;;5023509;28;20041;-65
2022/03/24 02:09:18;;;;;;;40.40;21.05;;;3.10;99.50;;;;;;5019896;28;20095;-65
2022/03/24 02:11:43;;;;;;;41.80;20.73;;;3.10;99.50;;;;;;5020427;28;20145;-66
2022/03/24 02:14:09;;;;;;;40.28;21.88;;;3.10;99.30;;;;;;5018175;28;20091;-65
2022/03/24 02:16:38;;;;;;;45.97;23.05;;;3.10;99.10;;;;;;5019844;28;20041;-65
2022/03/24 02:19:21;;;;;;;36.92;21.95;;;3.10;99.30;;;;;;5027790;28;20568;-65
2022/03/24 02:21:53;;;;;;;39.70;21.33;;;3.10;99.00;;;;;;5024034;28;20435;-65
2022/03/24 02:24:21;;;;;;;40.33;21.63;;;3.10;99.10;;;;;;5021093;28;20163;-66
2022/03/24 02:26:48;;;;;;;38.83;21.02;;;3.10;99.40;;;;;;5020564;28;20049;-65
2022/03/24 02:29:15;;;;;;;40.78;22.45;;;3.10;99.40;;;;;;5003192;28;20124;-65
2022/03/24 02:31:44;;;;;;;43.30;22.17;;;3.10;99.10;;;;;;5019232;28;20099;-66
2022/03/24 02:36:59;;;;;;;40.15;21.67;;;3.10;99.50;;;;;;4999776;28;20489;-65
2022/03/24 02:39:26;;;;;;;39.53;21.80;;;3.10;99.40;;;;;;5006564;28;20041;-65
2022/03/24 02:41:57;;;;;;;39.45;22.00;;;3.00;99.50;;;;;;5023805;28;20046;-65
2022/03/24 02:44:32;;;;;;;53.65;22.45;;;3.00;99.50;;;;;;5020466;28;20048;-65
2022/03/24 02:47:01;;;;;;;43.63;22.05;;;3.00;99.50;;;;;;5021309;28;20084;-65
2022/03/24 02:49:30;;;;;;;40.33;21.52;;;3.00;99.70;;;;;;5020713;28;20037;-65
2022/03/24 02:51:58;;;;;;;42.90;21.92;;;2.90;99.90;;;;;;5012018;28;20041;-65
2022/03/24 02:54:24;;;;;;;41.55;23.40;;;2.90;99.90;;;;;;5020309;28;20075;-65
2022/03/24 02:56:50;;;;;;;43.30;23.48;;;2.90;99.90;;;;;;5022300;28;20049;-66
2022/03/24 02:59:16;;;;;;;39.85;21.75;;;2.90;99.90;;;;;;5023593;28;20157;-65
2022/03/24 03:01:52;;;;;;;44.10;23.63;;;2.90;99.90;;;;;;5021706;28;20037;-66
2022/03/24 03:04:18;;;;;;;44.45;23.50;;;2.90;99.90;;;;;;5021583;28;20045;-65
2022/03/24 03:06:44;;;;;;;39.10;21.92;;;2.80;99.90;;;;;;5020320;28;20042;-65
2022/03/24 03:09:14;;;;;;;39.17;23.00;;;2.80;99.90;;;;;;5019216;28;20150;-66
2022/03/24 03:11:43;;;;;;;41.05;22.33;;;2.70;99.90;;;;;;5003531;28;20582;-65
2022/03/24 03:14:11;;;;;;;44.28;22.67;;;2.70;99.90;;;;;;5019518;28;20045;-65
2022/03/24 03:16:38;;;;;;;39.90;21.15;;;2.60;99.90;;;;;;5019822;28;20121;-66
2022/03/24 03:19:04;;;;;;;46.35;22.35;;;2.70;99.90;;;;;;5034279;28;20043;-65
2022/03/24 03:21:29;;;;;;;38.78;21.90;;;2.70;99.90;;;;;;5026548;28;20044;-65
2022/03/24 03:23:55;;;;;;;40.15;21.30;;;2.70;99.90;;;;;;5021000;28;20452;-66
2022/03/24 03:26:23;;;;;;;43.38;21.75;;;2.70;99.90;;;;;;5019774;28;20080;-66
2022/03/24 03:28:52;;;;;;;40.35;22.02;;;2.70;99.90;;;;;;5021481;28;20124;-65
2022/03/24 03:31:20;;;;;;;37.13;21.00;;;2.70;99.90;;;;;;5022057;28;20045;-65
2022/03/24 03:33:45;;;;;;;40.08;21.83;;;2.60;99.90;;;;;;5020490;28;20065;-65
2022/03/24 03:36:12;;;;;;;43.42;22.67;;;2.60;99.90;;;;;;5021425;28;20091;-66
2022/03/24 03:38:38;;;;;;;40.85;22.23;;;2.60;99.90;;;;;;5023297;28;20103;-65
2022/03/24 03:41:04;;;;;;;42.78;22.20;;;2.70;99.90;;;;;;5022556;28;20041;-66
2022/03/24 03:43:29;;;;;;;41.22;21.63;;;2.60;99.90;;;;;;5019614;28;20042;-66
2022/03/24 03:45:55;;;;;;;42.05;22.25;;;2.60;99.90;;;;;;5017637;28;20045;-65
2022/03/24 03:48:21;;;;;;;39.95;22.88;;;2.60;99.90;;;;;;5022514;28;20045;-66
2022/03/24 03:50:48;;;;;;;44.60;22.27;;;2.60;99.90;;;;;;5022267;28;20420;-66
2022/03/24 03:53:14;;;;;;;44.92;22.33;;;2.60;99.90;;;;;;5023522;28;20610;-66
2022/03/24 03:55:40;;;;;;;40.10;22.23;;;2.60;99.90;;;;;;5008321;28;20045;-66
2022/03/24 03:58:06;;;;;;;40.63;22.70;;;2.50;99.90;;;;;;5022080;28;20756;-65
2022/03/24 04:03:17;;;;;;;39.05;21.05;;;2.50;99.90;;;;;;5026448;28;20123;-68
2022/03/24 04:05:43;;;;;;;42.25;21.58;;;2.50;99.90;;;;;;5026506;28;20143;-66
2022/03/24 04:08:10;;;;;;;34.35;19.38;;;2.50;99.90;;;;;;5032510;28;20034;-66
2022/03/24 04:10:38;;;;;;;35.80;20.55;;;2.50;99.90;;;;;;5025830;28;20108;-67
2022/03/24 04:13:07;;;;;;;38.03;21.08;;;2.40;99.90;;;;;;5025901;28;20092;-67
2022/03/24 04:15:34;;;;;;;47.50;21.83;;;2.40;99.90;;;;;;5024016;28;20041;-67
2022/03/24 04:18:00;;;;;;;42.85;22.30;;;2.40;99.90;;;;;;5026356;28;20505;-67
2022/03/24 04:20:26;;;;;;;39.33;20.80;;;2.40;99.90;;;;;;5026532;28;20168;-66
2022/03/24 04:22:53;;;;;;;40.78;21.65;;;2.30;99.90;;;;;;5026173;28;20076;-67
2022/03/24 04:25:20;;;;;;;41.30;22.23;;;2.30;99.90;;;;;;5022785;28;20461;-66
2022/03/24 04:27:47;;;;;;;38.15;21.98;;;2.30;99.90;;;;;;5025006;28;20068;-67
2022/03/24 04:30:12;;;;;;;39.45;20.90;;;2.30;99.90;;;;;;5024614;28;20045;-66
2022/03/24 04:32:39;;;;;;;39.00;20.98;;;2.30;99.90;;;;;;5026189;28;20411;-67
2022/03/24 04:35:11;;;;;;;41.63;22.17;;;2.30;99.90;;;;;;5024909;28;20037;-66
2022/03/24 04:37:37;;;;;;;40.17;21.88;;;2.30;99.90;;;;;;5025775;28;20095;-67
2022/03/24 04:40:05;;;;;;;32.85;18.95;;;2.30;99.90;;;;;;5026078;28;20038;-67
2022/03/24 04:42:31;;;;;;;41.95;21.42;;;2.30;99.90;;;;;;5025194;28;20041;-67
2022/03/24 04:44:57;;;;;;;42.15;21.15;;;2.30;99.90;;;;;;5025420;28;20517;-67
2022/03/24 04:47:23;;;;;;;38.38;20.25;;;2.30;99.90;;;;;;5022138;28;20124;-66
2022/03/24 04:49:49;;;;;;;39.92;21.13;;;2.30;99.90;;;;;;5025953;28;20037;-66
2022/03/24 04:52:15;;;;;;;36.95;20.25;;;2.30;99.90;;;;;;5024778;28;20125;-66
2022/03/24 04:54:41;;;;;;;38.05;20.73;;;2.30;99.90;;;;;;5022782;28;20045;-66
2022/03/24 04:57:07;;;;;;;36.20;19.75;;;2.30;99.90;;;;;;5022737;28;20052;-67
2022/03/24 04:59:33;;;;;;;39.85;21.17;;;2.30;99.90;;;;;;5025420;28;20041;-66
2022/03/24 05:01:58;;;;;;;37.20;19.58;;;2.20;99.90;;;;;;5024202;28;20042;-67
2022/03/24 05:04:24;;;;;;;38.25;20.92;;;2.20;99.90;;;;;;5022314;28;20455;-67
2022/03/24 05:06:50;;;;;;;37.42;20.02;;;2.20;99.90;;;;;;5024688;28;20460;-67
2022/03/24 05:09:16;;;;;;;43.00;21.73;;;2.20;99.90;;;;;;5025188;28;20647;-66
2022/03/24 05:11:42;;;;;;;37.40;20.08;;;2.20;99.90;;;;;;5025149;28;20146;-67
2022/03/24 05:14:11;;;;;;;39.53;21.52;;;2.20;99.90;;;;;;5025514;28;20099;-66
2022/03/24 05:16:36;;;;;;;36.55;20.35;;;2.20;99.90;;;;;;5025300;28;20146;-66
2022/03/24 05:19:03;;;;;;;38.55;20.95;;;2.20;99.90;;;;;;5033609;28;20533;-66
2022/03/24 05:21:31;;;;;;;41.63;19.65;;;2.20;99.90;;;;;;5024815;28;20045;-67
2022/03/24 05:23:57;;;;;;;35.63;20.45;;;2.20;99.90;;;;;;5023649;28;20437;-66
2022/03/24 05:26:24;;;;;;;41.72;20.17;;;2.20;99.90;;;;;;5039167;28;20060;-67
2022/03/24 05:28:50;;;;;;;41.45;20.58;;;2.20;99.90;;;;;;5025370;28;20045;-66
2022/03/24 05:31:16;;;;;;;35.92;19.27;;;2.20;99.90;;;;;;5024570;28;20148;-66
2022/03/24 05:33:43;;;;;;;37.60;20.25;;;2.20;99.90;;;;;;5023288;28;20529;-67
2022/03/24 05:36:09;;;;;;;39.20;20.60;;;2.20;99.90;;;;;;5023031;28;20065;-66
2022/03/24 05:38:36;;;;;;;34.95;19.17;;;2.20;99.90;;;;;;5023881;28;20045;-66
2022/03/24 05:41:02;;;;;;;35.83;18.88;;;2.30;99.90;;;;;;5023136;28;20075;-67
2022/03/24 05:43:29;;;;;;;36.70;20.00;;;2.30;99.90;;;;;;5022448;28;20052;-67
2022/03/24 05:45:55;;;;;;;35.78;19.30;;;2.30;99.90;;;;;;5011532;28;20105;-66
2022/03/24 05:48:20;;;;;;;37.05;19.73;;;2.30;99.90;;;;;;5019445;28;20203;-66
2022/03/24 05:50:46;;;;;;;38.13;18.90;;;2.40;99.90;;;;;;5020382;28;20044;-66
2022/03/24 05:53:12;;;;;;;32.60;19.20;;;2.40;99.90;;;;;;5017737;28;20045;-67
2022/03/24 05:55:40;;;;;;;35.08;19.40;;;2.90;99.90;;;;;;5019440;28;20124;-67
2022/03/24 05:58:06;;;;;;;39.72;19.50;;;3.50;99.90;;;;;;5022527;28;20630;-67
2022/03/24 06:00:34;;;;;;;33.55;18.92;;;4.00;99.90;;;;;;5022367;28;20052;-67
2022/03/24 06:03:01;;;;;;;35.33;19.55;;;4.10;98.30;;;;;;5020480;28;20046;-67
2022/03/24 06:05:27;;;;;;;35.13;19.60;;;4.20;98.40;;;;;;5018027;28;20128;-69
2022/03/24 06:07:53;;;;;;;35.33;17.88;;;4.30;98.40;;;;;;5019423;28;20607;-68
2022/03/24 06:10:19;;;;;;;37.38;19.50;;;4.50;97.90;;;;;;5021061;28;20045;-67
2022/03/24 06:12:47;;;;;;;;;;;4.80;97.20;;;;;;5022777;28;20110;-67
2022/03/24 06:15:13;;;;;;;28.92;16.90;;;5.50;96.20;;;;;;5011187;28;19917;-68
2022/03/24 06:17:39;;;;;;;;;;;6.00;94.80;;;;;;5020268;28;20464;-69
2022/03/24 06:20:08;;;;;;;28.63;16.20;;;6.30;93.80;;;;;;5023187;28;19920;-69
2022/03/24 06:22:49;;;;;;;33.25;18.05;;;6.80;93.50;;;;;;5003960;28;20045;-69
2022/03/24 06:25:15;;;;;;;27.67;16.23;;;7.00;92.90;;;;;;5016719;28;20026;-68
2022/03/24 06:27:42;;;;;;;;;;;6.80;93.20;;;;;;5004921;28;20045;-68
2022/03/24 06:30:08;;;;;;;31.00;17.30;;;6.60;93.20;;;;;;5022885;28;19921;-69
2022/03/24 06:32:34;;;;;;;31.48;18.30;;;6.30;94.20;;;;;;5023316;28;20068;-69
2022/03/24 06:35:01;;;;;;;;;;;6.30;94.90;;;;;;5019380;28;20453;-68
2022/03/24 06:37:27;;;;;;;30.75;15.77;;;6.50;95.50;;;;;;5020270;28;19987;-66
2022/03/24 06:39:53;;;;;;;31.58;16.80;;;6.90;95.00;;;;;;5022312;28;20046;-67
2022/03/24 06:42:19;;;;;;;;;;;7.10;94.10;;;;;;5022802;28;20029;-67
2022/03/24 06:44:45;;;;;;;26.85;16.05;;;7.50;93.80;;;;;;5020440;28;19923;-66
2022/03/24 06:47:11;;;;;;;;;;;8.00;93.20;;;;;;5013973;28;20030;-66
2022/03/24 06:49:36;;;;;;;32.97;16.45;;;8.20;91.80;;;;;;5021232;28;19921;-67
2022/03/24 06:52:02;;;;;;;;;;;8.50;91.80;;;;;;5019440;28;20710;-70
2022/03/24 06:54:28;;;;;;;29.08;14.93;;;8.60;91.70;;;;;;5001564;28;19920;-67
2022/03/24 06:56:53;;;;;;;;;;;8.60;92.00;;;;;;5024575;28;20045;-68
2022/03/24 06:59:19;;;;;;;26.15;16.13;;;8.60;90.60;;;;;;5021990;28;19924;-67
2022/03/24 07:01:45;;;;;;;;;;;8.40;91.80;;;;;;5021611;28;20037;-68
2022/03/24 07:04:10;;;;;;;35.50;17.05;;;8.40;92.50;;;;;;5020209;28;19917;-67
2022/03/24 07:06:37;;;;;;;;;;;8.80;92.50;;;;;;5021957;28;20133;-67
2022/03/24 07:09:03;;;;;;;31.30;16.35;;;9.40;90.50;;;;;;5020558;28;19917;-68
2022/03/24 07:11:29;;;;;;;;;;;9.40;89.60;;;;;;5022006;28;20103;-68
2022/03/24 07:13:55;;;;;;;24.45;15.57;;;9.70;90.20;;;;;;5021287;28;19978;-67
2022/03/24 07:16:20;;;;;;;;;;;9.70;89.90;;;;;;5016220;28;20045;-68
2022/03/24 07:18:46;;;;;;;23.52;15.07;;;9.80;88.30;;;;;;5027276;28;19917;-70
2022/03/24 07:21:12;;;;;;;;;;;9.50;87.40;;;;;;5023689;28;20187;-70
2022/03/24 07:23:37;;;;;;;27.10;15.48;;;9.50;90.20;;;;;;5020858;28;19964;-70
2022/03/24 07:26:03;;;;;;;;;;;9.80;88.70;;;;;;5015139;28;20041;-71
2022/03/24 07:28:29;;;;;;;25.55;14.73;;;10.00;88.20;;;;;;5025134;28;20015;-70
2022/03/24 07:30:55;;;;;;;35.60;15.02;;;10.20;88.50;;;;;;5026595;28;20041;-70
2022/03/24 07:33:20;;;;;;;;;;;10.40;89.10;;;;;;5027111;28;20149;-68
2022/03/24 07:35:47;;;;;;;23.90;14.60;;;10.60;87.30;;;;;;5015962;28;19924;-69
2022/03/24 07:38:14;;;;;;;35.13;14.80;;;10.70;85.80;;;;;;5028286;28;20037;-68
2022/03/24 07:40:40;;;;;;;32.97;17.08;;;11.00;84.00;;;;;;5024353;28;20121;-70
2022/03/24 07:43:05;;;;;;;;;;;11.00;84.40;;;;;;5027580;28;20120;-67
2022/03/24 07:45:37;;;;;;;28.70;14.95;;;10.80;84.30;;;;;;5026074;28;19924;-67
2022/03/24 07:48:11;;;;;;;29.05;15.40;;;11.00;84.50;;;;;;5029879;28;20048;-70
2022/03/24 07:50:39;;;;;;;31.13;15.23;;;11.30;84.90;;;;;;5026211;28;20033;-69
2022/03/24 07:53:18;;;;;;;31.27;15.80;;;11.60;83.00;;;;;;5025877;28;20235;-72
2022/03/24 07:55:46;;;;;;;25.73;15.30;;;11.70;80.80;;;;;;5020640;28;20065;-71
2022/03/24 07:58:13;;;;;;;24.35;14.68;;;12.00;81.60;;;;;;5015231;28;20890;-72
2022/03/24 08:00:39;;;;;;;28.38;13.88;;;12.60;80.50;;;;;;5004836;28;20041;-72
2022/03/24 08:03:14;;;;;;;24.52;15.45;;;12.80;77.50;;;;;;5017903;28;20080;-71
2022/03/24 08:05:41;;;;;;;22.52;14.75;;;13.00;76.60;;;;;;5025507;28;20073;-69
2022/03/24 08:08:09;;;;;;;25.20;15.98;;;13.70;76.30;;;;;;5024931;28;20037;-72
2022/03/24 08:10:36;;;;;;;20.75;13.15;;;14.50;69.80;;;;;;5033877;28;20045;-71
2022/03/24 08:13:03;;;;;;;24.90;14.65;;;15.10;69.60;;;;;;5025785;28;20049;-71
2022/03/24 08:15:28;;;;;;;26.42;13.98;;;15.60;68.10;;;;;;5023209;28;20033;-71
2022/03/24 08:17:54;;;;;;;;;;;15.90;65.00;;;;;;5005235;28;20739;-70
2022/03/24 08:20:19;;;;;;;24.83;14.80;;;16.40;62.50;;;;;;5025348;28;19971;-69
2022/03/24 08:22:45;;;;;;;;;;;17.10;61.90;;;;;;5025075;28;20780;-67
2022/03/24 08:25:11;;;;;;;28.80;13.50;;;17.90;58.20;;;;;;5026748;28;19927;-67
2022/03/24 08:27:36;;;;;;;;;;;18.30;54.70;;;;;;5027398;28;20133;-67
2022/03/24 08:30:06;;;;;;;26.77;15.40;;;18.30;52.70;;;;;;5025629;28;20348;-67
2022/03/24 08:32:32;;;;;;;25.30;15.23;;;18.20;53.40;;;;;;5023538;28;20076;-67
2022/03/24 08:34:58;;;;;;;;;;;18.20;53.70;;;;;;5027970;28;20045;-68
2022/03/24 08:37:24;;;;;;;29.10;15.85;;;17.90;52.40;;;;;;5027785;28;19947;-69
2022/03/24 08:39:50;;;;;;;27.02;16.45;;;16.70;54.50;;;;;;5024750;28;20099;-69
2022/03/24 08:42:15;;;;;;;;;;;15.70;55.70;;;;;;5026650;28;20037;-68
2022/03/24 08:44:41;;;;;;;31.73;18.08;;;15.00;56.00;;;;;;5025863;28;19917;-68
2022/03/24 08:47:07;;;;;;;;;;;14.60;55.40;;;;;;5025639;28;20037;-69
2022/03/24 08:49:32;;;;;;;32.42;18.17;;;14.20;57.50;;;;;;5029830;28;19917;-68
2022/03/24 08:51:58;;;;;;;;;;;13.90;53.60;;;;;;5025073;28;20626;-71
2022/03/24 08:54:25;;;;;;;26.60;15.75;;;13.80;52.90;;;;;;5023712;28;20008;-71
2022/03/24 08:56:51;;;;;;;25.67;16.13;;;13.80;54.00;;;;;;5023878;28;20337;-71
2022/03/24 08:59:17;;;;;;;;;;;13.90;53.60;;;;;;5004548;28;20394;-70
2022/03/24 09:01:44;;;;;;;28.80;18.17;;;13.90;52.30;;;;;;5021437;28;19921;-71
2022/03/24 09:04:10;;;;;;;28.27;17.92;;;14.00;52.60;;;;;;5023127;28;20044;-71
2022/03/24 09:06:37;;;;;;;34.78;19.52;;;13.90;52.40;;;;;;5023551;28;20046;-71
2022/03/24 09:09:04;;;;;;;29.50;17.75;;;13.90;50.90;;;;;;5006672;28;20715;-70
2022/03/24 09:11:30;;;;;;;35.03;19.88;;;13.90;51.60;;;;;;5023953;28;20045;-71
2022/03/24 09:13:56;;;;;;;;;;;13.90;50.40;;;;;;5024365;28;20103;-69
2022/03/24 09:16:21;;;;;;;44.47;21.33;;;13.80;51.20;;;;;;5015121;28;19925;-69
2022/03/24 09:18:47;;;;;;;;;;;13.90;51.70;;;;;;5024737;28;20124;-69
2022/03/24 09:21:13;;;;;;;37.55;21.13;;;13.90;51.00;;;;;;5020406;28;19920;-69
2022/03/24 09:23:39;;;;;;;37.08;20.38;;;14.00;50.20;;;;;;5020153;28;20076;-69
2022/03/24 09:26:05;;;;;;;;;;;14.00;52.00;;;;;;5018447;28;20540;-69
2022/03/24 09:28:31;;;;;;;34.28;19.20;;;14.10;51.70;;;;;;5025231;28;19925;-69
2022/03/24 09:30:58;;;;;;;35.20;20.50;;;14.20;50.50;;;;;;5019334;28;20042;-70
2022/03/24 09:33:24;;;;;;;32.40;18.70;;;14.30;50.10;;;;;;5022041;28;20702;-69
2022/03/24 09:35:50;;;;;;;31.85;19.70;;;14.30;50.20;;;;;;5023622;28;20068;-70
2022/03/24 09:38:17;;;;;;;39.08;21.40;;;14.30;51.40;;;;;;5024392;28;20060;-70
2022/03/24 09:40:43;;;;;;;31.42;19.95;;;14.20;51.70;;;;;;5024376;28;20037;-70
2022/03/24 09:43:08;;;;;;;;;;;14.40;52.40;;;;;;5022994;28;20136;-69
2022/03/24 09:45:34;;;;;;;33.65;19.77;;;14.40;50.20;;;;;;5006151;28;20004;-69
2022/03/24 09:48:00;;;;;;;;;;;14.50;47.30;;;;;;5026056;28;20391;-69
2022/03/24 09:50:27;;;;;;;34.95;18.58;;;14.50;47.90;;;;;;5036914;28;19921;-69
2022/03/24 09:52:53;;;;;;;43.67;21.52;;;14.60;50.50;;;;;;5024167;28;20094;-69
2022/03/24 09:55:19;;;;;;;;;;;14.60;48.30;;;;;;5024660;28;20405;-69
2022/03/24 09:57:47;;;;;;;33.90;21.05;;;14.50;49.60;;;;;;5023849;28;19921;-69
2022/03/24 10:00:13;;;;;;;30.45;18.88;;;14.50;47.90;;;;;;5023021;28;20099;-73
2022/03/24 10:02:39;;;;;;;;;;;14.60;49.60;;;;;;5022635;28;20129;-69
2022/03/24 10:05:07;;;;;;;32.70;19.90;;;14.80;49.40;;;;;;5019715;28;20933;-69
2022/03/24 10:07:45;;;;;;;32.35;20.10;;;14.80;52.40;;;;;;5023843;28;20048;-69
2022/03/24 10:10:24;;;;;;;33.53;20.10;;;14.90;49.60;;;;;;5023044;28;20154;-69
2022/03/24 10:12:49;;;;;;;34.97;21.23;;;15.00;51.70;;;;;;5023475;28;20130;-69
2022/03/24 10:15:16;;;;;;;;;;;14.90;48.30;;;;;;5019941;28;20068;-69
2022/03/24 10:17:54;;;;;;;36.17;20.17;;;15.00;49.30;;;;;;5020725;28;20373;-69
2022/03/24 10:20:20;;;;;;;44.22;23.05;;;15.10;48.30;;;;;;5021620;28;20527;-70
2022/03/24 10:22:53;;;;;;;37.20;21.42;;;15.00;50.60;;;;;;5024194;28;20037;-69
2022/03/24 10:25:25;;;;;;;36.45;22.42;;;15.00;50.50;;;;;;5017513;28;20121;-69
2022/03/24 10:28:02;;;;;;;37.72;23.00;;;15.00;50.30;;;;;;5019943;28;20046;-69
2022/03/24 10:30:28;;;;;;;37.88;23.25;;;15.00;51.60;;;;;;5023015;28;20116;-69
2022/03/24 10:32:55;;;;;;;;;;;15.00;52.40;;;;;;5023887;28;20234;-69
2022/03/24 10:35:21;;;;;;;38.60;22.73;;;15.00;51.50;;;;;;5006862;28;20339;-70
2022/03/24 10:37:48;;;;;;;;;;;14.80;50.70;;;;;;5024932;28;20057;-70
2022/03/24 10:40:14;;;;;;;38.83;23.58;;;14.80;49.20;;;;;;5024255;28;19928;-70
2022/03/24 10:42:40;;;;;;;;;;;14.90;50.30;;;;;;5023549;28;20045;-72
2022/03/24 10:45:06;;;;;;;36.28;20.50;;;15.00;49.00;;;;;;5023465;28;19978;-70
2022/03/24 10:47:35;;;;;;;;;;;15.10;48.40;;;;;;5022592;28;20136;-70
2022/03/24 10:50:26;;;;;;;41.92;24.15;;;15.30;49.30;;;;;;5023612;28;20553;-70
2022/03/24 10:52:53;;;;;;;41.80;24.20;;;15.20;50.10;;;;;;5023151;28;20041;-70
2022/03/24 10:55:36;;;;;;;41.70;23.65;;;15.10;50.30;;;;;;5023176;28;20125;-71
2022/03/24 10:58:07;;;;;;;47.95;26.88;;;15.10;49.00;;;;;;5022747;28;20076;-70
2022/03/24 11:00:34;;;;;;;50.70;26.70;;;15.00;51.70;;;;;;5004681;28;20034;-70
2022/03/24 11:03:00;;;;;;;46.83;24.63;;;15.10;52.10;;;;;;5019274;28;20038;-71
2022/03/24 11:05:26;;;;;;;50.35;26.92;;;15.10;51.20;;;;;;5022151;28;20041;-70
2022/03/24 11:07:53;;;;;;;;;;;15.10;52.50;;;;;;5023870;28;20034;-69
2022/03/24 11:10:21;;;;;;;48.80;25.20;;;15.00;51.30;;;;;;5023188;28;20428;-71
2022/03/24 11:12:52;;;;;;;57.25;26.23;;;15.10;51.60;;;;;;5023254;28;20053;-71
2022/03/24 11:15:19;;;;;;;44.40;26.00;;;15.20;51.60;;;;;;5023084;28;20496;-71
2022/03/24 11:17:46;;;;;;;47.30;27.30;;;15.10;50.90;;;;;;5006681;28;20278;-70
2022/03/24 11:20:15;;;;;;;43.53;25.33;;;15.00;51.40;;;;;;5031669;28;20037;-69
2022/03/24 11:23:01;;;;;;;42.20;25.92;;;15.10;52.40;;;;;;5024052;28;20045;-69
2022/03/24 11:25:28;;;;;;;49.50;27.13;;;15.10;50.80;;;;;;5018710;28;20144;-70
2022/03/24 11:27:54;;;;;;;49.00;27.58;;;15.10;53.00;;;;;;5022717;28;20099;-70
2022/03/24 11:30:22;;;;;;;47.90;25.92;;;15.10;51.00;;;;;;5022979;28;20046;-70
2022/03/24 11:32:50;;;;;;;41.58;24.80;;;15.20;51.80;;;;;;5021911;28;20097;-69
2022/03/24 11:35:16;;;;;;;49.70;25.08;;;15.20;51.10;;;;;;5022792;28;20128;-70
2022/03/24 11:37:42;;;;;;;47.97;25.92;;;15.20;51.40;;;;;;5021959;28;20559;-69
2022/03/24 11:40:11;;;;;;;;;;;15.20;49.00;;;;;;5023489;28;20037;-69
2022/03/24 11:42:54;;;;;;;46.85;24.23;;;15.00;48.30;;;;;;5023003;28;19921;-69
2022/03/24 11:45:32;;;;;;;47.40;27.15;;;15.20;49.50;;;;;;5022108;28;20044;-70
2022/03/24 11:48:05;;;;;;;44.97;24.58;;;15.30;50.90;;;;;;5019201;28;20055;-69
2022/03/24 11:51:16;;;;;;;46.65;26.85;;;15.20;50.80;;;;;;5019816;28;20052;-69
2022/03/24 11:53:45;;;;;;;43.95;25.80;;;15.30;50.70;;;;;;5013128;28;20126;-70
2022/03/24 11:56:15;;;;;;;52.15;28.60;;;15.20;51.60;;;;;;5022944;28;20037;-69
2022/03/24 11:58:52;;;;;;;48.80;27.60;;;15.30;51.20;;;;;;5022900;28;20041;-69
2022/03/24 12:01:18;;;;;;;49.80;28.55;;;15.30;53.30;;;;;;5023066;28;20052;-69
2022/03/24 12:03:44;;;;;;;;;;;15.40;51.00;;;;;;5022957;28;20042;-69
2022/03/24 12:06:13;;;;;;;45.70;26.50;;;15.20;48.80;;;;;;5021905;28;19979;-70
2022/03/24 12:08:49;;;;;;;47.17;26.45;;;15.20;52.00;;;;;;5030542;28;20091;-70
2022/03/24 12:11:36;;;;;;;53.05;28.45;;;15.30;50.30;;;;;;5017584;28;20067;-70
2022/03/24 12:14:09;;;;;;;46.72;28.60;;;15.40;49.90;;;;;;5023561;28;20080;-70
2022/03/24 12:16:38;;;;;;;45.03;26.88;;;15.20;49.60;;;;;;5026893;28;20068;-70
2022/03/24 12:19:05;;;;;;;47.47;27.88;;;15.20;49.20;;;;;;5026871;28;20033;-70
2022/03/24 12:21:31;;;;;;;54.63;28.33;;;15.30;52.10;;;;;;5026665;28;20041;-70
2022/03/24 12:24:18;;;;;;;54.38;29.40;;;15.10;50.40;;;;;;5025933;28;20636;-70
2022/03/24 12:26:53;;;;;;;62.37;31.13;;;15.10;49.30;;;;;;5025438;28;20041;-70
2022/03/24 12:29:24;;;;;;;77.55;29.15;;;15.20;50.30;;;;;;5026113;28;20090;-69
2022/03/24 12:32:06;;;;;;;47.90;26.50;;;15.10;49.90;;;;;;5024665;28;20156;-69
2022/03/24 12:34:37;;;;;;;44.03;26.50;;;15.10;49.80;;;;;;5021187;28;20045;-70
2022/03/24 12:37:05;;;;;;;52.50;28.52;;;15.20;50.60;;;;;;5021983;28;20046;-69
2022/03/24 12:39:36;;;;;;;52.90;29.10;;;15.10;49.20;;;;;;5005782;28;20041;-69
2022/03/24 12:42:11;;;;;;;54.95;29.30;;;15.10;48.70;;;;;;5023944;28;20108;-70
2022/03/24 12:44:57;;;;;;;53.05;29.02;;;15.20;50.00;;;;;;5023448;28;20037;-69
2022/03/24 12:47:36;;;;;;;51.07;27.57;;;15.10;50.30;;;;;;5022999;28;20049;-69
2022/03/24 12:50:16;;;;;;;50.13;29.40;;;15.30;50.90;;;;;;5023963;28;20033;-70
2022/03/24 12:52:48;;;;;;;47.63;27.38;;;15.30;50.60;;;;;;5024638;28;20038;-69
2022/03/24 12:55:22;;;;;;;49.75;27.65;;;15.50;50.00;;;;;;5020511;28;20354;-69